Airfield :
LOGIN :

Register | Disclaimer

   EN    FR    IT 

 










Legend :    VFR   Marginal VFR   IFR   Intensive IFR   Very Intensive IFR
Visi :
Ceiling :
>= 8 km
>= 3000ft
5 to 8 km
1000 to 3000 ft
1500m to 5 km
500 to 1000 ft
800 to 1500m
200 to 500 ft
< 800m
< 200 ft
Symbols :   Thunderstorms  Fog  Heavy snow  Heavy precipitations  Wind > 20 kt
SIGMETs :     Misc.  Thunderstorms  Icing  Turbulence  Mountain Waves  Volcanic Ashes







- Airport Elevation : 194 ft
- IATA code : IEG


EPZG - Zielona Gora Babimost

CURRENT METAR :
  • 211200Z 23013KT 200V270 CAVOK 30/11 Q1006

EXPIRED METARs :
  • 211130Z 22019KT CAVOK 31/11 Q1006
  • 211100Z 24016KT CAVOK 31/11 Q1007
  • 211030Z 24013KT CAVOK 30/12 Q1007
  • 211000Z 24011KT 200V280 CAVOK 28/12 Q1008
  • 210930Z 21013KT 160V250 CAVOK 29/12 Q1008
  • 210900Z 22009KT 180V250 CAVOK 28/12 Q1009

TAF TAF EPZG
Valid from the 21 at 12:00 until the 21 at 21:00 UTC


211130Z 2112/2121 23015KT 9999 SCT040
TEMPO 2112/2116 30025G50KT 1400 +TSRAGR BKN014CB
BECMG 2112/2114 30015G25KT
PROB30
TEMPO 2116/2121 SCT030CB
No reported NOTAMs for that airfield.



MET'MAP, your aeronautical weather chart ! - Copyright ORBIFLY December 2007 - Disclaimer

ORBIFLY MET'MAP TEAM :

Programming & Development : Alexandra Zaïnal
Concept & Development : Baudouin d'Aumeries
Co-Development & Prog : Marc-Olivier Méhu
Technical & hardware support : Manuel Goepfert

Contact : metmap@orbifly.com




SOURCES & CREDITS :

   NOAA